Time;durP1;ratioP1;P1;durP2;ratioP2;P2;SDS_P1;SDS_P2;PMS_P1;PMS_P2;Temp;Humidity;BMP_temperature;BMP_pressure;BME280_temperature;BME280_humidity;BME280_pressure;Samples;Min_cycle;Max_cycle;Signal;HPM_P1;HPM_P2
2021/08/30 00:02:19;;;;;;;12.55;8.45;;;15.40;99.90;;;;;;4918951;29;20036;-74
2021/08/30 00:04:45;;;;;;;13.77;8.30;;;15.50;99.90;;;;;;4917666;29;20448;-76
2021/08/30 00:07:10;;;;;;;10.93;8.35;;;15.50;99.90;;;;;;4917245;29;20028;-75
2021/08/30 00:09:36;;;;;;;9.70;8.20;;;15.50;99.90;;;;;;4917784;29;20024;-75
2021/08/30 00:12:02;;;;;;;12.82;9.70;;;15.50;99.90;;;;;;4918706;29;20055;-75
2021/08/30 00:14:28;;;;;;;13.23;8.85;;;15.50;99.90;;;;;;4918420;29;20016;-75
2021/08/30 00:16:54;;;;;;;14.02;8.07;;;15.50;99.90;;;;;;4918405;29;20099;-75
2021/08/30 00:19:19;;;;;;;16.08;9.55;;;15.50;99.90;;;;;;4919275;29;20480;-75
2021/08/30 00:21:45;;;;;;;11.65;8.27;;;15.40;99.90;;;;;;4917837;29;20078;-75
2021/08/30 00:24:11;;;;;;;13.75;8.35;;;15.40;99.90;;;;;;4918671;29;20063;-73
2021/08/30 00:26:36;;;;;;;13.23;8.48;;;15.40;99.90;;;;;;4919019;29;20031;-74
2021/08/30 00:29:02;;;;;;;12.23;8.07;;;15.40;99.90;;;;;;4917729;29;20020;-74
2021/08/30 00:31:28;;;;;;;11.30;7.85;;;15.30;99.90;;;;;;4917276;29;20036;-75
2021/08/30 00:33:54;;;;;;;12.10;9.02;;;15.30;99.90;;;;;;4918261;29;20382;-75
2021/08/30 00:36:20;;;;;;;9.80;8.00;;;15.30;99.90;;;;;;4917177;29;20068;-75
2021/08/30 00:38:45;;;;;;;15.60;9.38;;;15.20;99.90;;;;;;4916980;29;20104;-74
2021/08/30 00:41:13;;;;;;;12.70;8.65;;;15.20;99.90;;;;;;4917103;29;20028;-75
2021/08/30 00:43:38;;;;;;;11.75;8.48;;;15.30;99.90;;;;;;4916509;29;20035;-76
2021/08/30 00:46:05;;;;;;;12.32;8.20;;;15.20;99.90;;;;;;4918081;29;20032;-75
2021/08/30 00:48:31;;;;;;;11.30;7.97;;;15.30;99.90;;;;;;4917955;29;20487;-75
2021/08/30 00:50:57;;;;;;;12.63;8.63;;;15.40;99.90;;;;;;4916732;29;20020;-75
2021/08/30 00:53:23;;;;;;;14.77;8.40;;;15.50;99.90;;;;;;4918213;29;20029;-75
2021/08/30 00:55:49;;;;;;;11.80;8.02;;;15.60;99.90;;;;;;4916197;29;20056;-75
2021/08/30 00:58:15;;;;;;;12.00;9.10;;;15.70;99.90;;;;;;4918093;29;20069;-75
2021/08/30 01:00:40;;;;;;;11.77;8.35;;;15.80;99.90;;;;;;4916831;29;20024;-75
2021/08/30 01:03:06;;;;;;;10.75;8.52;;;15.90;99.90;;;;;;4916065;29;20060;-75
2021/08/30 01:05:32;;;;;;;10.40;8.60;;;15.90;99.90;;;;;;4918349;29;20024;-74
2021/08/30 01:08:22;;;;;;;14.55;9.55;;;15.90;99.90;;;;;;4916494;29;20032;-74
2021/08/30 01:11:06;;;;;;;12.73;8.02;;;16.00;99.90;;;;;;4915913;29;20119;-75
2021/08/30 01:13:50;;;;;;;11.95;8.27;;;16.10;99.90;;;;;;4916572;29;20022;-74
2021/08/30 01:16:17;;;;;;;9.73;8.02;;;16.10;99.90;;;;;;4907007;29;20036;-75
2021/08/30 01:18:42;;;;;;;10.88;7.95;;;16.10;99.90;;;;;;4897010;29;20388;-75
2021/08/30 01:21:18;;;;;;;12.80;8.75;;;16.20;99.90;;;;;;4898766;29;20032;-74
2021/08/30 01:23:51;;;;;;;8.32;7.35;;;16.20;99.90;;;;;;4897548;29;20032;-75
2021/08/30 01:26:18;;;;;;;10.73;8.13;;;16.30;99.90;;;;;;4898753;29;20028;-75
2021/08/30 01:29:02;;;;;;;8.60;7.60;;;16.20;99.90;;;;;;4898428;29;20033;-74
2021/08/30 01:31:38;;;;;;;11.50;7.50;;;16.30;99.90;;;;;;4896912;29;20025;-75
2021/08/30 01:34:04;;;;;;;12.18;8.23;;;16.30;99.90;;;;;;4896948;29;20025;-75
2021/08/30 01:36:31;;;;;;;8.60;7.43;;;16.30;99.90;;;;;;4897453;29;20393;-74
2021/08/30 01:38:59;;;;;;;11.77;7.78;;;16.30;99.90;;;;;;4897513;29;20466;-76
2021/08/30 01:41:26;;;;;;;10.75;8.00;;;16.30;99.90;;;;;;4896976;29;20105;-75
2021/08/30 01:43:53;;;;;;;11.05;7.90;;;16.30;99.90;;;;;;4898423;29;20025;-75
2021/08/30 01:46:19;;;;;;;11.60;8.55;;;16.30;99.90;;;;;;4897900;29;20024;-75
2021/08/30 01:48:50;;;;;;;10.68;8.40;;;16.40;99.90;;;;;;4897029;29;20578;-75
2021/08/30 01:51:19;;;;;;;11.40;7.43;;;16.40;99.90;;;;;;4896978;29;20027;-75
2021/08/30 01:53:47;;;;;;;8.90;7.53;;;16.40;99.90;;;;;;4896089;29;20092;-75
2021/08/30 01:56:15;;;;;;;10.75;8.63;;;16.40;99.90;;;;;;4898328;29;20377;-75
2021/08/30 02:01:26;;;;;;;10.07;8.38;;;16.40;99.90;;;;;;4898393;29;20135;-75
2021/08/30 02:03:51;;;;;;;11.07;7.47;;;16.40;99.90;;;;;;4897754;29;20099;-75
2021/08/30 02:06:17;;;;;;;13.02;7.93;;;16.40;99.90;;;;;;4897494;29;20080;-74
2021/08/30 02:08:42;;;;;;;12.75;7.78;;;16.40;99.90;;;;;;4896588;29;20033;-74
2021/08/30 02:11:13;;;;;;;11.57;7.65;;;16.40;99.90;;;;;;4896643;29;20025;-74
2021/08/30 02:13:38;;;;;;;12.07;8.45;;;16.40;99.90;;;;;;4896224;29;20021;-75
2021/08/30 02:16:05;;;;;;;9.98;7.25;;;16.40;99.90;;;;;;4905604;29;20441;-76
2021/08/30 02:18:48;;;;;;;10.77;8.20;;;16.40;99.90;;;;;;4916791;29;20430;-76
2021/08/30 02:21:41;;;;;;;9.68;8.00;;;16.40;99.90;;;;;;4914788;29;20038;-74
2021/08/30 02:24:12;;;;;;;9.60;8.05;;;16.40;99.90;;;;;;4916640;29;20028;-75
2021/08/30 02:27:02;;;;;;;11.88;8.88;;;16.40;99.90;;;;;;4915713;29;20024;-75
2021/08/30 02:29:36;;;;;;;10.18;8.32;;;16.40;99.90;;;;;;4915925;29;20115;-75
2021/08/30 02:32:05;;;;;;;11.63;8.43;;;16.40;99.90;;;;;;4916247;29;20148;-75
2021/08/30 02:34:32;;;;;;;11.88;8.45;;;16.40;99.90;;;;;;4914671;29;20025;-75
2021/08/30 02:36:59;;;;;;;9.05;7.68;;;16.40;99.90;;;;;;4914213;29;20501;-75
2021/08/30 02:39:26;;;;;;;8.35;7.50;;;16.40;99.90;;;;;;4916566;29;20048;-76
2021/08/30 02:41:52;;;;;;;10.57;7.97;;;16.40;99.90;;;;;;4914171;29;20052;-75
2021/08/30 02:44:18;;;;;;;10.40;7.80;;;16.40;99.90;;;;;;4915142;29;20013;-75
2021/08/30 02:46:45;;;;;;;9.48;7.72;;;16.40;99.90;;;;;;4916007;29;20032;-74
2021/08/30 02:49:13;;;;;;;11.32;7.68;;;16.40;99.90;;;;;;4914616;29;20029;-76
2021/08/30 02:51:40;;;;;;;10.18;8.60;;;16.40;99.90;;;;;;4916250;29;20116;-75
2021/08/30 02:54:07;;;;;;;11.27;7.97;;;16.40;99.90;;;;;;4916200;29;20028;-75
2021/08/30 02:56:33;;;;;;;8.95;8.00;;;16.40;99.90;;;;;;4914375;29;20087;-76
2021/08/30 02:59:00;;;;;;;10.00;8.30;;;16.30;99.90;;;;;;4914467;29;20115;-75
2021/08/30 03:01:26;;;;;;;11.85;9.40;;;16.30;99.90;;;;;;4914941;29;20123;-75
2021/08/30 03:03:53;;;;;;;11.25;8.93;;;16.30;99.90;;;;;;4914135;29;20039;-77
2021/08/30 03:06:19;;;;;;;10.60;8.77;;;16.30;99.90;;;;;;4916294;29;20031;-77
2021/08/30 03:08:44;;;;;;;10.57;8.70;;;16.30;99.90;;;;;;4914767;29;20028;-75
2021/08/30 03:11:13;;;;;;;10.15;8.43;;;16.30;99.90;;;;;;4915323;29;20354;-76
2021/08/30 03:13:41;;;;;;;11.52;8.85;;;16.30;99.90;;;;;;4914845;29;20032;-76
2021/08/30 03:16:07;;;;;;;10.13;8.52;;;16.30;99.90;;;;;;4905669;29;20024;-76
2021/08/30 03:18:34;;;;;;;11.80;9.45;;;16.20;99.90;;;;;;4895516;29;20032;-76
2021/08/30 03:21:00;;;;;;;13.63;9.40;;;16.20;99.90;;;;;;4895526;29;20116;-77
2021/08/30 03:23:28;;;;;;;11.82;8.38;;;16.20;99.90;;;;;;4896523;29;20529;-76
2021/08/30 03:25:55;;;;;;;14.93;10.45;;;16.30;99.90;;;;;;4896881;29;20112;-76
2021/08/30 03:28:21;;;;;;;12.27;8.82;;;16.20;99.90;;;;;;4895929;29;20025;-77
2021/08/30 03:30:48;;;;;;;13.32;9.50;;;16.30;99.90;;;;;;4896288;29;20032;-76
2021/08/30 03:33:14;;;;;;;14.88;9.77;;;16.30;99.90;;;;;;4895782;29;20025;-76
2021/08/30 03:35:41;;;;;;;12.77;8.90;;;16.30;99.90;;;;;;4897614;29;20036;-76
2021/08/30 03:38:08;;;;;;;13.60;9.70;;;16.30;99.90;;;;;;4895389;29;20044;-76
2021/08/30 03:40:35;;;;;;;14.43;10.13;;;16.30;99.90;;;;;;4895967;29;20025;-77
2021/08/30 03:43:03;;;;;;;12.80;9.80;;;16.30;99.90;;;;;;4896688;29;20052;-76
2021/08/30 03:45:29;;;;;;;11.48;9.40;;;16.40;99.90;;;;;;4895371;29;20044;-76
2021/08/30 03:47:57;;;;;;;14.38;9.57;;;16.40;99.90;;;;;;4899262;29;20036;-77
2021/08/30 03:50:23;;;;;;;12.32;9.43;;;16.40;99.90;;;;;;4899404;29;20389;-76
2021/08/30 03:52:50;;;;;;;15.93;11.13;;;16.40;99.90;;;;;;4899618;29;20027;-75
2021/08/30 03:55:15;;;;;;;11.07;9.75;;;16.40;99.90;;;;;;4899131;29;20492;-76
2021/08/30 03:57:41;;;;;;;11.73;9.98;;;16.40;99.90;;;;;;4903281;29;20111;-76
2021/08/30 04:00:09;;;;;;;13.73;9.85;;;16.40;99.90;;;;;;4923014;29;20071;-75
2021/08/30 04:02:36;;;;;;;15.05;10.50;;;16.50;99.90;;;;;;4921029;29;20040;-75
2021/08/30 04:05:04;;;;;;;18.42;11.30;;;16.50;99.90;;;;;;4914136;29;20066;-76
2021/08/30 04:07:31;;;;;;;12.65;10.20;;;16.50;99.90;;;;;;4937791;29;20032;-75
2021/08/30 04:09:57;;;;;;;12.65;9.75;;;16.50;99.90;;;;;;4923538;29;20028;-75
2021/08/30 04:12:23;;;;;;;12.93;10.68;;;16.50;99.90;;;;;;4918000;29;20032;-75
2021/08/30 04:14:49;;;;;;;18.67;11.20;;;16.50;99.90;;;;;;4918256;29;20099;-75
2021/08/30 04:17:16;;;;;;;16.75;10.95;;;16.50;99.90;;;;;;4920043;29;20491;-75
2021/08/30 04:19:42;;;;;;;15.48;11.50;;;16.50;99.90;;;;;;4917251;29;20166;-76
2021/08/30 04:22:08;;;;;;;13.35;10.45;;;16.60;99.90;;;;;;4936334;29;20043;-76
2021/08/30 04:24:34;;;;;;;16.02;11.45;;;16.60;99.90;;;;;;4925851;29;20028;-75
2021/08/30 04:26:59;;;;;;;15.45;11.23;;;16.60;99.90;;;;;;4917779;29;20089;-75
2021/08/30 04:29:27;;;;;;;20.88;12.27;;;16.60;99.90;;;;;;4918731;29;20465;-75
2021/08/30 04:31:52;;;;;;;13.63;10.82;;;16.60;99.90;;;;;;4917380;29;20039;-75
2021/08/30 04:34:22;;;;;;;13.00;10.45;;;16.70;99.90;;;;;;4918092;29;20020;-75
2021/08/30 04:36:48;;;;;;;16.10;11.85;;;16.70;99.90;;;;;;4923369;29;20433;-75
2021/08/30 04:39:14;;;;;;;21.98;12.38;;;16.70;99.90;;;;;;4916446;29;20056;-76
2021/08/30 04:41:41;;;;;;;17.63;12.07;;;16.70;99.90;;;;;;4916151;29;20456;-75
2021/08/30 04:44:08;;;;;;;16.35;12.13;;;16.70;99.90;;;;;;4918438;29;20112;-76
2021/08/30 04:46:33;;;;;;;18.58;12.73;;;16.70;99.90;;;;;;4917350;29;20477;-78
2021/08/30 04:48:59;;;;;;;18.45;12.00;;;16.70;99.90;;;;;;4916102;29;20122;-76
2021/08/30 04:51:25;;;;;;;16.25;12.15;;;16.70;99.90;;;;;;4918374;29;20107;-76
2021/08/30 04:53:50;;;;;;;16.73;11.43;;;16.70;99.90;;;;;;4917999;29;20032;-76
2021/08/30 04:56:16;;;;;;;20.27;13.38;;;16.70;99.90;;;;;;4917399;29;20107;-76
2021/08/30 04:58:41;;;;;;;15.88;11.95;;;16.80;99.90;;;;;;4917131;29;20028;-76
2021/08/30 05:01:07;;;;;;;18.08;12.70;;;16.80;99.90;;;;;;4918047;29;20028;-76
2021/08/30 05:03:32;;;;;;;16.48;12.85;;;16.70;99.90;;;;;;4916259;29;20032;-76
2021/08/30 05:05:58;;;;;;;19.20;13.07;;;16.70;99.90;;;;;;4916494;29;20079;-76
2021/08/30 05:08:23;;;;;;;18.08;13.73;;;16.70;99.90;;;;;;4915635;29;20039;-76
2021/08/30 05:10:49;;;;;;;18.27;12.98;;;16.70;99.90;;;;;;4920893;29;20028;-74
2021/08/30 05:13:14;;;;;;;17.75;13.48;;;16.70;99.90;;;;;;4916782;29;20024;-73
2021/08/30 05:15:40;;;;;;;18.25;13.80;;;16.70;99.90;;;;;;4930172;29;20032;-72
2021/08/30 05:18:06;;;;;;;17.45;12.98;;;16.70;99.90;;;;;;4908047;29;20028;-74
2021/08/30 05:20:31;;;;;;;20.50;14.38;;;16.70;99.90;;;;;;4935687;29;20024;-72
2021/08/30 05:22:57;;;;;;;20.48;12.27;;;16.80;99.90;;;;;;4927879;29;20043;-72
2021/08/30 05:25:22;;;;;;;21.13;13.20;;;16.80;99.90;;;;;;4917917;29;20051;-73
2021/08/30 05:27:51;;;;;;;17.83;13.27;;;16.90;99.90;;;;;;4913163;29;20119;-73
2021/08/30 05:30:17;;;;;;;20.33;13.98;;;16.90;99.90;;;;;;4931747;29;20020;-72
2021/08/30 05:32:42;;;;;;;24.35;13.80;;;16.90;99.90;;;;;;4933236;29;20024;-75
2021/08/30 05:35:08;;;;;;;18.08;12.15;;;17.00;99.90;;;;;;4917129;29;20107;-75
2021/08/30 05:37:34;;;;;;;17.95;12.90;;;17.00;99.90;;;;;;4920872;29;20027;-75
2021/08/30 05:39:59;;;;;;;22.55;14.82;;;17.10;99.90;;;;;;4947531;29;20812;-75
2021/08/30 05:42:25;;;;;;;19.98;13.55;;;17.20;99.90;;;;;;4921179;29;20044;-76
2021/08/30 05:44:51;;;;;;;20.23;13.60;;;17.20;99.90;;;;;;4919333;29;20480;-75
2021/08/30 05:47:16;;;;;;;19.13;13.40;;;17.20;99.90;;;;;;4936326;29;20453;-76
2021/08/30 05:49:42;;;;;;;18.63;13.95;;;17.10;99.90;;;;;;4924087;29;20410;-73
2021/08/30 05:52:08;;;;;;;19.92;13.13;;;17.00;99.90;;;;;;4915237;29;20478;-74
2021/08/30 05:54:33;;;;;;;18.05;11.85;;;17.00;99.90;;;;;;4915886;29;20031;-74
2021/08/30 05:56:59;;;;;;;15.45;12.15;;;17.10;99.90;;;;;;4916804;29;20028;-76
2021/08/30 05:59:24;;;;;;;25.08;13.63;;;17.10;99.90;;;;;;4915252;29;20016;-76
2021/08/30 06:01:50;;;;;;;21.33;14.43;;;17.20;99.90;;;;;;4916913;29;20032;-78
2021/08/30 06:04:15;;;;;;;19.70;14.25;;;17.20;99.90;;;;;;4932257;29;20031;-83
2021/08/30 06:06:41;;;;;;;21.13;13.38;;;17.20;99.90;;;;;;4930754;29;20548;-77
2021/08/30 06:09:06;;;;;;;19.52;12.73;;;17.30;99.90;;;;;;4931621;29;20039;-75
2021/08/30 06:11:32;;;;;;;18.08;12.20;;;17.40;99.90;;;;;;4916607;29;20124;-75
2021/08/30 06:13:57;;;;;;;21.27;13.68;;;17.40;99.90;;;;;;4914521;29;20034;-81
2021/08/30 06:16:23;;;;;;;18.95;13.82;;;17.40;99.90;;;;;;4916587;29;20040;-73
2021/08/30 06:18:49;;;;;;;17.80;13.05;;;17.50;99.90;;;;;;4915240;29;20048;-75
2021/08/30 06:21:14;;;;;;;26.00;14.18;;;17.50;99.90;;;;;;4911113;29;20036;-73
2021/08/30 06:23:40;;;;;;;21.08;12.82;;;17.60;99.90;;;;;;4913095;29;20036;-76
2021/08/30 06:26:05;;;;;;;26.52;13.40;;;17.70;99.90;;;;;;4914821;29;20032;-77
2021/08/30 06:28:31;;;;;;;19.90;12.48;;;17.80;99.90;;;;;;4914109;29;20035;-76
2021/08/30 06:30:57;;;;;;;18.40;12.07;;;17.90;99.90;;;;;;4915964;29;20062;-72
2021/08/30 06:33:23;;;;;;;22.45;13.98;;;18.00;99.90;;;;;;4914480;29;20066;-75
2021/08/30 06:35:48;;;;;;;22.73;12.43;;;18.10;99.90;;;;;;4915158;29;20354;-76
2021/08/30 06:38:15;;;;;;;17.48;12.13;;;18.20;99.90;;;;;;4914884;29;20116;-76
2021/08/30 06:40:41;;;;;;;17.67;11.43;;;18.30;99.90;;;;;;4914160;29;20565;-76
2021/08/30 06:43:06;;;;;;;17.40;12.88;;;18.40;99.90;;;;;;4914064;29;20457;-76
2021/08/30 06:45:33;;;;;;;18.85;13.10;;;18.60;99.90;;;;;;4920231;29;20032;-76
2021/08/30 06:47:59;;;;;;;17.30;11.73;;;18.70;99.90;;;;;;4915365;29;20107;-76
2021/08/30 06:50:25;;;;;;;18.80;11.93;;;18.70;99.90;;;;;;4915685;29;20096;-74
2021/08/30 06:52:53;;;;;;;18.05;11.57;;;18.70;99.90;;;;;;4913863;29;20118;-74
2021/08/30 06:55:19;;;;;;;13.52;11.20;;;18.70;99.90;;;;;;4913767;29;20024;-76
2021/08/30 06:57:45;;;;;;;20.38;13.13;;;18.70;99.90;;;;;;4914613;29;20481;-74
2021/08/30 07:00:11;;;;;;;19.33;12.52;;;18.70;99.90;;;;;;4915409;29;20035;-75
2021/08/30 07:02:36;;;;;;;19.25;12.65;;;18.60;99.90;;;;;;4915377;29;20152;-75
2021/08/30 07:05:03;;;;;;;19.77;12.73;;;18.60;99.90;;;;;;4915280;29;20107;-75
2021/08/30 07:07:28;;;;;;;21.02;12.63;;;18.50;99.90;;;;;;4915406;29;20039;-74
2021/08/30 07:09:54;;;;;;;16.30;11.43;;;18.50;99.90;;;;;;4914790;29;20481;-71
2021/08/30 07:12:20;;;;;;;17.80;12.00;;;18.50;99.90;;;;;;4915374;29;20059;-75
2021/08/30 07:14:45;;;;;;;16.13;11.57;;;18.50;99.90;;;;;;4914215;29;20032;-75
2021/08/30 07:17:11;;;;;;;20.98;13.80;;;18.50;99.90;;;;;;4914507;29;20032;-77
2021/08/30 07:19:37;;;;;;;19.08;12.15;;;18.50;99.90;;;;;;4915457;29;20039;-77
2021/08/30 07:22:04;;;;;;;18.95;12.70;;;18.60;99.90;;;;;;4916470;29;20071;-74
2021/08/30 07:24:30;;;;;;;21.75;14.73;;;18.60;99.90;;;;;;4919380;29;20111;-76
2021/08/30 07:26:56;;;;;;;21.92;12.45;;;18.60;99.90;;;;;;4919392;29;20525;-80
2021/08/30 07:29:21;;;;;;;15.68;11.18;;;18.70;99.90;;;;;;4918828;29;20028;-73
2021/08/30 07:31:47;;;;;;;17.98;12.20;;;18.70;99.90;;;;;;4917038;29;20028;-76
2021/08/30 07:34:12;;;;;;;15.20;11.38;;;18.80;99.90;;;;;;4918608;29;20024;-74
2021/08/30 07:36:38;;;;;;;18.23;12.20;;;18.80;99.90;;;;;;4917283;29;20085;-77
2021/08/30 07:39:04;;;;;;;15.50;13.13;;;19.00;99.90;;;;;;4918607;29;20028;-76
2021/08/30 07:41:30;;;;;;;14.73;12.00;;;19.20;99.90;;;;;;4917788;29;20052;-77
2021/08/30 07:43:57;;;;;;;16.92;11.88;;;19.40;99.90;;;;;;4918003;29;20032;-76
2021/08/30 07:46:24;;;;;;;17.05;12.55;;;19.40;99.90;;;;;;4919647;29;20024;-77
2021/08/30 07:48:50;;;;;;;20.73;12.38;;;19.50;99.90;;;;;;4919463;29;20079;-76
2021/08/30 07:51:17;;;;;;;19.80;12.15;;;19.60;99.90;;;;;;4933589;29;20062;-76
2021/08/30 07:53:43;;;;;;;17.80;12.55;;;19.70;99.90;;;;;;4933598;29;20043;-76
2021/08/30 07:56:11;;;;;;;16.52;12.10;;;19.70;99.90;;;;;;4919555;29;20030;-76
2021/08/30 07:58:36;;;;;;;20.45;12.25;;;19.70;99.90;;;;;;4933350;29;20070;-77
2021/08/30 08:01:02;;;;;;;16.60;11.73;;;19.60;99.90;;;;;;4918728;29;20060;-77
2021/08/30 08:03:28;;;;;;;14.82;12.80;;;19.50;99.90;;;;;;4919204;29;20032;-77
2021/08/30 08:05:53;;;;;;;18.88;12.10;;;19.40;99.90;;;;;;4933008;29;20473;-76
2021/08/30 08:08:19;;;;;;;15.80;12.05;;;19.30;99.90;;;;;;4919157;29;20040;-76
2021/08/30 08:10:44;;;;;;;14.68;11.55;;;19.20;99.90;;;;;;4933540;29;20024;-76
2021/08/30 08:13:11;;;;;;;15.32;11.60;;;19.10;99.90;;;;;;4932862;29;20060;-77
2021/08/30 08:15:37;;;;;;;17.92;12.60;;;19.10;99.90;;;;;;4918956;29;20039;-78
2021/08/30 08:18:03;;;;;;;16.10;11.80;;;19.00;99.90;;;;;;4933654;29;20024;-77
2021/08/30 08:20:31;;;;;;;14.75;11.77;;;19.00;99.90;;;;;;4932967;29;20496;-77
2021/08/30 08:23:01;;;;;;;15.60;11.65;;;19.00;99.90;;;;;;4918383;29;20060;-77
2021/08/30 08:25:26;;;;;;;16.85;11.40;;;19.10;99.90;;;;;;4933488;29;20017;-76
2021/08/30 08:27:52;;;;;;;13.15;11.18;;;19.30;99.90;;;;;;4932605;29;20472;-76
2021/08/30 08:30:18;;;;;;;15.98;12.10;;;19.50;99.90;;;;;;4933263;29;20453;-77
2021/08/30 08:32:43;;;;;;;15.30;11.15;;;19.60;99.90;;;;;;4917707;29;20111;-76
2021/08/30 08:35:10;;;;;;;14.02;11.35;;;19.90;99.90;;;;;;4917869;29;20363;-76
2021/08/30 08:37:36;;;;;;;16.73;10.65;;;20.10;99.90;;;;;;4933575;29;20118;-77
2021/08/30 08:40:04;;;;;;;14.70;11.48;;;20.30;99.90;;;;;;4917556;29;20441;-76
2021/08/30 08:42:29;;;;;;;15.65;11.25;;;20.50;99.90;;;;;;4933007;29;20135;-77
2021/08/30 08:44:55;;;;;;;14.70;10.32;;;20.80;99.90;;;;;;4918300;29;20112;-76
2021/08/30 08:47:20;;;;;;;11.70;10.02;;;20.90;99.90;;;;;;4916407;29;20080;-77
2021/08/30 08:49:52;;;;;;;14.23;10.77;;;20.90;99.90;;;;;;4918148;29;20037;-77
2021/08/30 08:52:22;;;;;;;13.95;10.25;;;20.90;99.90;;;;;;4932891;29;20024;-77
2021/08/30 08:54:49;;;;;;;15.93;9.27;;;20.90;99.90;;;;;;4917535;29;20540;-77
2021/08/30 08:57:15;;;;;;;16.95;10.70;;;20.80;99.90;;;;;;4918291;29;20054;-77
2021/08/30 08:59:53;;;;;;;11.15;9.40;;;20.80;99.90;;;;;;4932552;29;20029;-76
2021/08/30 09:02:28;;;;;;;12.80;9.07;;;20.80;99.90;;;;;;4917567;29;20032;-77
2021/08/30 09:04:54;;;;;;;13.30;8.57;;;21.00;99.90;;;;;;4917779;29;20021;-77
2021/08/30 09:07:29;;;;;;;11.65;8.68;;;21.10;99.90;;;;;;4918195;29;20581;-77
2021/08/30 09:09:58;;;;;;;13.15;9.20;;;21.20;99.90;;;;;;4917277;29;20030;-77
2021/08/30 09:12:23;;;;;;;12.48;9.18;;;21.20;99.90;;;;;;4917744;29;20039;-77
2021/08/30 09:14:51;;;;;;;11.10;8.80;;;21.10;99.90;;;;;;4916796;29;20385;-77
2021/08/30 09:17:16;;;;;;;11.57;8.68;;;20.90;99.90;;;;;;4917301;29;20024;-77
2021/08/30 09:19:42;;;;;;;10.73;8.52;;;20.70;99.90;;;;;;4932356;29;20032;-77
2021/08/30 09:22:09;;;;;;;12.60;8.73;;;20.60;99.90;;;;;;4915853;29;20028;-78
2021/08/30 09:24:36;;;;;;;13.93;8.65;;;20.50;99.90;;;;;;4916649;29;20020;-77
2021/08/30 09:27:05;;;;;;;10.82;8.07;;;20.60;99.90;;;;;;4917335;29;20032;-77
2021/08/30 09:29:36;;;;;;;12.68;8.68;;;20.70;99.90;;;;;;4917294;29;20031;-77
2021/08/30 09:32:06;;;;;;;;;;;20.70;99.90;;;;;;4915603;29;20039;-76
2021/08/30 09:34:43;;;;;;;9.82;8.73;;;20.80;99.90;;;;;;4917604;29;20398;-77
2021/08/30 09:37:18;;;;;;;9.88;7.95;;;20.80;99.90;;;;;;4916869;29;20107;-77
2021/08/30 09:39:49;;;;;;;9.85;8.45;;;20.80;99.90;;;;;;4916041;29;20028;-77
2021/08/30 09:42:16;;;;;;;8.98;7.82;;;20.90;99.90;;;;;;4914733;29;20142;-77
2021/08/30 09:44:41;;;;;;;12.00;8.43;;;21.00;99.90;;;;;;4915823;29;20056;-76
2021/08/30 09:47:09;;;;;;;13.02;9.20;;;21.10;99.90;;;;;;4916274;29;20060;-77
2021/08/30 09:49:35;;;;;;;12.57;8.38;;;21.10;99.90;;;;;;4915504;29;20048;-76
2021/08/30 09:52:01;;;;;;;9.93;8.30;;;21.20;99.90;;;;;;4917005;29;20106;-77
2021/08/30 09:54:27;;;;;;;10.95;7.82;;;21.30;99.90;;;;;;4917263;29;20431;-77
2021/08/30 09:56:54;;;;;;;12.68;9.38;;;21.40;99.90;;;;;;4915159;29;20032;-78
2021/08/30 09:59:21;;;;;;;13.00;8.30;;;21.30;99.90;;;;;;4915891;29;20024;-80
2021/08/30 10:01:48;;;;;;;13.13;8.40;;;21.20;99.90;;;;;;4915487;29;20051;-80
2021/08/30 10:04:19;;;;;;;10.75;8.73;;;21.10;99.90;;;;;;4915286;29;20024;-78
2021/08/30 10:06:49;;;;;;;9.45;8.38;;;21.00;99.90;;;;;;4915884;29;20024;-78
2021/08/30 10:09:16;;;;;;;8.65;7.72;;;20.90;99.90;;;;;;4917004;29;20024;-76
2021/08/30 10:11:43;;;;;;;11.23;8.65;;;20.90;99.90;;;;;;4916253;29;20052;-77
2021/08/30 10:14:12;;;;;;;10.07;8.55;;;20.90;99.90;;;;;;4931754;29;20028;-77
2021/08/30 10:16:41;;;;;;;12.00;7.75;;;20.80;99.90;;;;;;4916427;29;20488;-77
2021/08/30 10:19:08;;;;;;;9.38;7.93;;;21.00;99.90;;;;;;4916798;29;20023;-76
2021/08/30 10:21:45;;;;;;;9.23;7.43;;;21.30;99.90;;;;;;4915445;29;20119;-77
2021/08/30 10:24:16;;;;;;;12.55;7.68;;;21.50;99.90;;;;;;4915028;29;20025;-77
2021/08/30 10:26:46;;;;;;;10.57;7.18;;;21.70;99.90;;;;;;4915460;29;20449;-77
2021/08/30 10:29:13;;;;;;;9.88;7.45;;;21.90;99.90;;;;;;4915445;29;20020;-77
2021/08/30 10:31:54;;;;;;;8.90;7.57;;;22.10;99.90;;;;;;4916015;29;20067;-77
2021/08/30 10:34:35;;;;;;;9.27;6.72;;;22.20;99.90;;;;;;4931017;29;20511;-77
2021/08/30 10:37:04;;;;;;;8.93;7.60;;;22.30;99.90;;;;;;4915012;29;20032;-77
2021/08/30 10:39:38;;;;;;;8.52;6.95;;;22.20;99.90;;;;;;4914714;29;20076;-77
2021/08/30 10:42:04;;;;;;;8.68;6.68;;;22.10;99.90;;;;;;4914756;29;20052;-77
2021/08/30 10:44:31;;;;;;;9.57;7.30;;;22.00;99.90;;;;;;4916005;29;20032;-78
2021/08/30 10:47:00;;;;;;;8.23;6.90;;;21.90;99.90;;;;;;4916042;29;20029;-77
2021/08/30 10:49:29;;;;;;;9.45;7.32;;;21.90;99.90;;;;;;4915556;29;20088;-78
2021/08/30 10:52:11;;;;;;;8.48;7.30;;;21.80;99.90;;;;;;4915365;29;20030;-77
2021/08/30 10:54:48;;;;;;;9.52;7.53;;;22.00;99.90;;;;;;4915165;29;20032;-77
2021/08/30 10:57:14;;;;;;;7.45;6.55;;;22.40;99.90;;;;;;4914283;29;20043;-78
2021/08/30 10:59:42;;;;;;;6.60;5.90;;;22.70;99.90;;;;;;4930157;29;20028;-78
2021/08/30 11:02:08;;;;;;;7.57;6.30;;;23.00;99.90;;;;;;4914837;29;20032;-78
2021/08/30 11:04:36;;;;;;;7.32;6.00;;;23.10;99.90;;;;;;4914723;29;20036;-78
2021/08/30 11:07:03;;;;;;;7.20;6.18;;;23.10;99.90;;;;;;4913764;29;20539;-77
2021/08/30 11:09:29;;;;;;;8.30;6.65;;;23.00;99.90;;;;;;4916195;29;20429;-78
2021/08/30 11:12:06;;;;;;;7.65;6.82;;;22.80;99.90;;;;;;4915470;29;20107;-77
2021/08/30 11:14:31;;;;;;;8.55;6.30;;;22.70;99.90;;;;;;4914603;29;20028;-78
2021/08/30 11:16:57;;;;;;;8.05;6.55;;;22.50;99.90;;;;;;4914491;29;20028;-77
2021/08/30 11:19:24;;;;;;;6.65;5.95;;;22.50;99.90;;;;;;4930578;29;20032;-78
2021/08/30 11:21:55;;;;;;;7.00;5.97;;;22.30;99.90;;;;;;4913796;29;20138;-77
2021/08/30 11:24:31;;;;;;;6.22;5.63;;;22.20;99.90;;;;;;4916079;29;20032;-77
2021/08/30 11:27:06;;;;;;;8.23;6.00;;;22.20;99.90;;;;;;4913507;29;20020;-77
2021/08/30 11:29:33;;;;;;;8.98;5.93;;;22.40;99.90;;;;;;4910068;29;20030;-73
2021/08/30 11:32:00;;;;;;;6.53;5.72;;;22.70;99.90;;;;;;4914353;29;20087;-73
2021/08/30 11:34:27;;;;;;;6.78;6.03;;;22.90;99.90;;;;;;4912473;29;20113;-78
2021/08/30 11:36:54;;;;;;;8.48;6.22;;;23.10;99.90;;;;;;4913741;29;20396;-74
2021/08/30 11:39:21;;;;;;;6.43;5.82;;;23.00;99.90;;;;;;4915308;29;20028;-74
2021/08/30 11:41:58;;;;;;;6.03;5.40;;;23.00;99.90;;;;;;4914514;29;20505;-80
2021/08/30 11:44:23;;;;;;;5.90;5.03;;;22.90;99.90;;;;;;4914233;29;20508;-80
2021/08/30 11:46:52;;;;;;;5.82;5.20;;;22.70;99.90;;;;;;4913585;29;20028;-77
2021/08/30 11:49:19;;;;;;;6.97;5.43;;;22.60;99.90;;;;;;4913829;29;20183;-77
2021/08/30 11:51:46;;;;;;;5.40;4.90;;;22.40;99.90;;;;;;4914164;29;20035;-77
2021/08/30 11:54:18;;;;;;;6.18;5.50;;;22.30;99.90;;;;;;4914198;29;20050;-76
2021/08/30 11:57:13;;;;;;;6.40;5.45;;;22.20;99.90;;;;;;4913246;29;20033;-75
2021/08/30 11:59:44;;;;;;;6.50;5.55;;;22.30;99.90;;;;;;4898856;29;20073;-76
2021/08/30 12:02:11;;;;;;;9.30;5.57;;;22.50;99.90;;;;;;4914701;29;20410;-75
2021/08/30 12:04:38;;;;;;;5.78;5.25;;;22.80;99.90;;;;;;4913008;29;20036;-73
2021/08/30 12:07:09;;;;;;;6.03;5.43;;;23.00;99.90;;;;;;4914146;29;20107;-72
2021/08/30 12:09:42;;;;;;;6.18;5.57;;;23.10;99.90;;;;;;4917023;29;20024;-75
2021/08/30 12:12:25;;;;;;;6.43;4.75;;;23.10;99.90;;;;;;4918366;29;20043;-76
2021/08/30 12:15:13;;;;;;;6.05;5.45;;;22.90;99.90;;;;;;4898597;29;20024;-75
2021/08/30 12:17:50;;;;;;;5.45;4.95;;;22.70;99.90;;;;;;4899568;29;20036;-74
2021/08/30 12:20:26;;;;;;;6.00;5.40;;;22.50;99.90;;;;;;4898753;29;20032;-74
2021/08/30 12:22:55;;;;;;;7.53;5.90;;;22.40;99.90;;;;;;4918298;29;20036;-74
2021/08/30 12:25:23;;;;;;;6.68;5.88;;;22.40;99.90;;;;;;4917818;29;20393;-71
2021/08/30 12:27:51;;;;;;;7.65;5.57;;;22.30;99.90;;;;;;4916546;29;20035;-73
2021/08/30 12:30:24;;;;;;;5.00;4.50;;;22.20;99.90;;;;;;4917540;29;20149;-73
2021/08/30 12:33:00;;;;;;;6.85;4.80;;;22.10;99.90;;;;;;4918040;29;20040;-71
2021/08/30 12:35:31;;;;;;;6.25;4.13;;;22.10;99.90;;;;;;4910704;29;20032;-78
2021/08/30 12:38:01;;;;;;;5.00;4.50;;;22.10;99.90;;;;;;4917336;29;20032;-74
2021/08/30 12:40:29;;;;;;;5.50;4.60;;;22.10;99.90;;;;;;4917383;29;20035;-74
2021/08/30 12:42:56;;;;;;;5.45;4.90;;;22.10;99.90;;;;;;4917128;29;20413;-74